sensor_id;sensor_type;location;lat;lon;timestamp;P1;durP1;ratioP1;P2;durP2;ratioP2
64873;SDS011;51367;45.204;38.576;2023-09-18T00:00:06;2.65;;;2.45;;
64873;SDS011;51367;45.204;38.576;2023-09-18T00:02:37;1.58;;;1.38;;
64873;SDS011;51367;45.204;38.576;2023-09-18T00:05:04;2.90;;;2.50;;
64873;SDS011;51367;45.204;38.576;2023-09-18T00:07:30;1.98;;;1.85;;
64873;SDS011;51367;45.204;38.576;2023-09-18T00:09:56;2.45;;;2.13;;
64873;SDS011;51367;45.204;38.576;2023-09-18T00:12:22;2.35;;;2.05;;
64873;SDS011;51367;45.204;38.576;2023-09-18T00:14:48;2.15;;;1.98;;
64873;SDS011;51367;45.204;38.576;2023-09-18T00:17:15;2.90;;;2.42;;
64873;SDS011;51367;45.204;38.576;2023-09-18T00:19:42;2.65;;;2.17;;
64873;SDS011;51367;45.204;38.576;2023-09-18T00:22:08;9.23;;;2.88;;
64873;SDS011;51367;45.204;38.576;2023-09-18T00:24:34;4.82;;;3.90;;
64873;SDS011;51367;45.204;38.576;2023-09-18T00:27:00;1.80;;;1.67;;
64873;SDS011;51367;45.204;38.576;2023-09-18T00:29:26;2.47;;;2.22;;
64873;SDS011;51367;45.204;38.576;2023-09-18T00:31:52;3.58;;;2.90;;
64873;SDS011;51367;45.204;38.576;2023-09-18T00:34:18;3.17;;;2.17;;
64873;SDS011;51367;45.204;38.576;2023-09-18T00:36:43;5.93;;;2.30;;
64873;SDS011;51367;45.204;38.576;2023-09-18T00:39:09;24.38;;;2.40;;
64873;SDS011;51367;45.204;38.576;2023-09-18T00:41:35;3.53;;;3.22;;
64873;SDS011;51367;45.204;38.576;2023-09-18T00:44:02;2.42;;;2.13;;
64873;SDS011;51367;45.204;38.576;2023-09-18T00:46:28;2.65;;;1.83;;
64873;SDS011;51367;45.204;38.576;2023-09-18T00:48:54;3.03;;;2.83;;
64873;SDS011;51367;45.204;38.576;2023-09-18T00:51:20;4.72;;;2.20;;
64873;SDS011;51367;45.204;38.576;2023-09-18T00:53:46;12.90;;;2.08;;
64873;SDS011;51367;45.204;38.576;2023-09-18T00:56:14;3.03;;;2.83;;
64873;SDS011;51367;45.204;38.576;2023-09-18T00:58:41;9.40;;;2.90;;
64873;SDS011;51367;45.204;38.576;2023-09-18T01:01:09;2.95;;;2.70;;
64873;SDS011;51367;45.204;38.576;2023-09-18T01:03:36;2.40;;;2.20;;
64873;SDS011;51367;45.204;38.576;2023-09-18T01:06:02;2.20;;;2.00;;
64873;SDS011;51367;45.204;38.576;2023-09-18T01:08:29;2.80;;;2.17;;
64873;SDS011;51367;45.204;38.576;2023-09-18T01:11:19;4.28;;;2.88;;
64873;SDS011;51367;45.204;38.576;2023-09-18T01:17:03;2.35;;;1.73;;
64873;SDS011;51367;45.204;38.576;2023-09-18T01:19:45;3.30;;;2.30;;
64873;SDS011;51367;45.204;38.576;2023-09-18T01:22:13;1.55;;;1.45;;
64873;SDS011;51367;45.204;38.576;2023-09-18T01:24:40;2.78;;;2.58;;
64873;SDS011;51367;45.204;38.576;2023-09-18T01:27:10;3.00;;;2.80;;
64873;SDS011;51367;45.204;38.576;2023-09-18T01:29:45;2.72;;;2.53;;
64873;SDS011;51367;45.204;38.576;2023-09-18T01:32:12;2.22;;;1.85;;
64873;SDS011;51367;45.204;38.576;2023-09-18T01:34:46;3.42;;;3.13;;
64873;SDS011;51367;45.204;38.576;2023-09-18T01:37:14;2.67;;;2.47;;
64873;SDS011;51367;45.204;38.576;2023-09-18T01:39:45;2.35;;;2.15;;
64873;SDS011;51367;45.204;38.576;2023-09-18T01:42:12;2.47;;;2.28;;
64873;SDS011;51367;45.204;38.576;2023-09-18T01:44:38;3.20;;;2.63;;
64873;SDS011;51367;45.204;38.576;2023-09-18T01:47:12;2.15;;;2.00;;
64873;SDS011;51367;45.204;38.576;2023-09-18T01:49:40;12.43;;;2.45;;
64873;SDS011;51367;45.204;38.576;2023-09-18T01:52:07;2.10;;;2.00;;
64873;SDS011;51367;45.204;38.576;2023-09-18T01:54:35;2.30;;;2.10;;
64873;SDS011;51367;45.204;38.576;2023-09-18T01:57:02;3.42;;;2.05;;
64873;SDS011;51367;45.204;38.576;2023-09-18T01:59:28;2.60;;;2.40;;
64873;SDS011;51367;45.204;38.576;2023-09-18T02:01:54;2.85;;;2.67;;
64873;SDS011;51367;45.204;38.576;2023-09-18T02:04:21;1.88;;;1.75;;
64873;SDS011;51367;45.204;38.576;2023-09-18T02:06:47;4.22;;;2.22;;
64873;SDS011;51367;45.204;38.576;2023-09-18T02:09:15;2.30;;;2.10;;
64873;SDS011;51367;45.204;38.576;2023-09-18T02:11:42;3.08;;;2.33;;
64873;SDS011;51367;45.204;38.576;2023-09-18T02:14:09;5.90;;;2.40;;
64873;SDS011;51367;45.204;38.576;2023-09-18T02:16:37;3.30;;;3.00;;
64873;SDS011;51367;45.204;38.576;2023-09-18T02:19:07;3.95;;;2.72;;
64873;SDS011;51367;45.204;38.576;2023-09-18T02:21:34;2.15;;;1.95;;
64873;SDS011;51367;45.204;38.576;2023-09-18T02:24:00;2.58;;;2.28;;
64873;SDS011;51367;45.204;38.576;2023-09-18T02:26:27;2.85;;;2.35;;
64873;SDS011;51367;45.204;38.576;2023-09-18T02:28:53;3.00;;;2.80;;
64873;SDS011;51367;45.204;38.576;2023-09-18T02:31:20;2.78;;;2.58;;
64873;SDS011;51367;45.204;38.576;2023-09-18T02:33:48;2.33;;;2.15;;
64873;SDS011;51367;45.204;38.576;2023-09-18T02:36:14;2.40;;;2.28;;
64873;SDS011;51367;45.204;38.576;2023-09-18T02:38:41;2.20;;;2.05;;
64873;SDS011;51367;45.204;38.576;2023-09-18T02:41:07;2.55;;;2.35;;
64873;SDS011;51367;45.204;38.576;2023-09-18T02:43:33;2.67;;;2.47;;
64873;SDS011;51367;45.204;38.576;2023-09-18T02:45:59;2.45;;;2.25;;
64873;SDS011;51367;45.204;38.576;2023-09-18T02:48:25;3.03;;;2.55;;
64873;SDS011;51367;45.204;38.576;2023-09-18T02:50:51;3.88;;;2.83;;
64873;SDS011;51367;45.204;38.576;2023-09-18T02:53:17;3.58;;;2.50;;
64873;SDS011;51367;45.204;38.576;2023-09-18T02:55:52;2.40;;;2.20;;
64873;SDS011;51367;45.204;38.576;2023-09-18T02:58:19;2.95;;;2.65;;
64873;SDS011;51367;45.204;38.576;2023-09-18T03:00:46;3.65;;;2.70;;
64873;SDS011;51367;45.204;38.576;2023-09-18T03:03:15;6.20;;;2.95;;
64873;SDS011;51367;45.204;38.576;2023-09-18T03:05:42;17.65;;;3.13;;
64873;SDS011;51367;45.204;38.576;2023-09-18T03:08:09;2.67;;;2.38;;
64873;SDS011;51367;45.204;38.576;2023-09-18T03:10:38;2.33;;;2.13;;
64873;SDS011;51367;45.204;38.576;2023-09-18T03:13:06;2.10;;;1.95;;
64873;SDS011;51367;45.204;38.576;2023-09-18T03:15:33;2.42;;;2.20;;
64873;SDS011;51367;45.204;38.576;2023-09-18T03:18:00;2.70;;;2.50;;
64873;SDS011;51367;45.204;38.576;2023-09-18T03:20:27;2.10;;;1.98;;
64873;SDS011;51367;45.204;38.576;2023-09-18T03:22:56;3.88;;;3.10;;
64873;SDS011;51367;45.204;38.576;2023-09-18T03:25:23;2.05;;;1.90;;
64873;SDS011;51367;45.204;38.576;2023-09-18T03:27:54;9.68;;;2.92;;
64873;SDS011;51367;45.204;38.576;2023-09-18T03:30:25;3.63;;;2.95;;
64873;SDS011;51367;45.204;38.576;2023-09-18T03:32:52;4.25;;;2.13;;
64873;SDS011;51367;45.204;38.576;2023-09-18T03:35:19;2.65;;;2.45;;
64873;SDS011;51367;45.204;38.576;2023-09-18T03:37:47;2.67;;;2.20;;
64873;SDS011;51367;45.204;38.576;2023-09-18T03:40:18;3.30;;;3.00;;
64873;SDS011;51367;45.204;38.576;2023-09-18T03:42:45;3.97;;;3.00;;
64873;SDS011;51367;45.204;38.576;2023-09-18T03:45:11;3.67;;;3.35;;
64873;SDS011;51367;45.204;38.576;2023-09-18T03:47:38;2.67;;;2.47;;
64873;SDS011;51367;45.204;38.576;2023-09-18T03:50:06;3.45;;;3.05;;
64873;SDS011;51367;45.204;38.576;2023-09-18T03:52:35;2.53;;;2.33;;
64873;SDS011;51367;45.204;38.576;2023-09-18T03:55:02;3.45;;;3.15;;
64873;SDS011;51367;45.204;38.576;2023-09-18T03:57:28;13.65;;;2.90;;
64873;SDS011;51367;45.204;38.576;2023-09-18T03:59:54;3.30;;;3.00;;
64873;SDS011;51367;45.204;38.576;2023-09-18T04:02:21;3.05;;;2.85;;
64873;SDS011;51367;45.204;38.576;2023-09-18T04:04:50;4.43;;;3.92;;
64873;SDS011;51367;45.204;38.576;2023-09-18T04:07:16;2.90;;;2.67;;
64873;SDS011;51367;45.204;38.576;2023-09-18T04:09:42;2.90;;;2.70;;
64873;SDS011;51367;45.204;38.576;2023-09-18T04:12:08;6.35;;;4.35;;
64873;SDS011;51367;45.204;38.576;2023-09-18T04:14:34;4.10;;;3.70;;
64873;SDS011;51367;45.204;38.576;2023-09-18T04:17:01;4.18;;;3.20;;
64873;SDS011;51367;45.204;38.576;2023-09-18T04:19:27;6.30;;;3.22;;
64873;SDS011;51367;45.204;38.576;2023-09-18T04:21:53;3.08;;;2.88;;
64873;SDS011;51367;45.204;38.576;2023-09-18T04:24:20;4.15;;;2.88;;
64873;SDS011;51367;45.204;38.576;2023-09-18T04:26:46;4.40;;;3.50;;
64873;SDS011;51367;45.204;38.576;2023-09-18T04:29:13;3.47;;;2.95;;
64873;SDS011;51367;45.204;38.576;2023-09-18T04:31:39;3.72;;;3.00;;
64873;SDS011;51367;45.204;38.576;2023-09-18T04:34:05;3.10;;;2.85;;
64873;SDS011;51367;45.204;38.576;2023-09-18T04:36:31;4.43;;;3.33;;
64873;SDS011;51367;45.204;38.576;2023-09-18T04:38:57;3.70;;;3.05;;
64873;SDS011;51367;45.204;38.576;2023-09-18T04:41:23;3.75;;;3.45;;
64873;SDS011;51367;45.204;38.576;2023-09-18T04:43:51;4.97;;;3.53;;
64873;SDS011;51367;45.204;38.576;2023-09-18T04:46:17;8.20;;;3.58;;
64873;SDS011;51367;45.204;38.576;2023-09-18T04:48:44;4.35;;;3.40;;
64873;SDS011;51367;45.204;38.576;2023-09-18T04:51:10;3.40;;;2.58;;
64873;SDS011;51367;45.204;38.576;2023-09-18T04:53:37;2.67;;;2.47;;
64873;SDS011;51367;45.204;38.576;2023-09-18T04:56:03;3.22;;;2.95;;
64873;SDS011;51367;45.204;38.576;2023-09-18T04:58:30;3.30;;;3.00;;
64873;SDS011;51367;45.204;38.576;2023-09-18T05:00:58;3.72;;;2.38;;
64873;SDS011;51367;45.204;38.576;2023-09-18T05:03:26;3.25;;;2.95;;
64873;SDS011;51367;45.204;38.576;2023-09-18T05:05:52;4.10;;;3.47;;
64873;SDS011;51367;45.204;38.576;2023-09-18T05:08:18;24.17;;;4.85;;
64873;SDS011;51367;45.204;38.576;2023-09-18T05:10:44;4.90;;;3.70;;
64873;SDS011;51367;45.204;38.576;2023-09-18T05:13:11;5.63;;;3.25;;
64873;SDS011;51367;45.204;38.576;2023-09-18T05:15:37;6.55;;;4.45;;
64873;SDS011;51367;45.204;38.576;2023-09-18T05:18:03;4.40;;;3.40;;
64873;SDS011;51367;45.204;38.576;2023-09-18T05:20:30;3.78;;;3.40;;
64873;SDS011;51367;45.204;38.576;2023-09-18T05:22:57;17.33;;;6.05;;
64873;SDS011;51367;45.204;38.576;2023-09-18T05:25:24;6.72;;;3.30;;
64873;SDS011;51367;45.204;38.576;2023-09-18T05:27:52;5.05;;;4.30;;
64873;SDS011;51367;45.204;38.576;2023-09-18T05:30:32;6.95;;;6.25;;
64873;SDS011;51367;45.204;38.576;2023-09-18T05:33:04;3.70;;;3.00;;
64873;SDS011;51367;45.204;38.576;2023-09-18T05:35:35;5.18;;;4.05;;
64873;SDS011;51367;45.204;38.576;2023-09-18T05:38:05;3.55;;;3.25;;
64873;SDS011;51367;45.204;38.576;2023-09-18T05:40:31;1.95;;;1.85;;
64873;SDS011;51367;45.204;38.576;2023-09-18T05:42:58;3.42;;;2.67;;
64873;SDS011;51367;45.204;38.576;2023-09-18T05:45:24;3.05;;;2.67;;
64873;SDS011;51367;45.204;38.576;2023-09-18T05:47:52;2.50;;;2.30;;
64873;SDS011;51367;45.204;38.576;2023-09-18T05:50:18;5.35;;;2.60;;
64873;SDS011;51367;45.204;38.576;2023-09-18T05:52:45;5.70;;;1.92;;
64873;SDS011;51367;45.204;38.576;2023-09-18T05:55:13;3.00;;;2.40;;
64873;SDS011;51367;45.204;38.576;2023-09-18T05:57:40;2.55;;;2.35;;
64873;SDS011;51367;45.204;38.576;2023-09-18T06:00:06;2.28;;;2.08;;
64873;SDS011;51367;45.204;38.576;2023-09-18T06:05:05;3.90;;;3.60;;
64873;SDS011;51367;45.204;38.576;2023-09-18T06:07:32;2.42;;;2.22;;
64873;SDS011;51367;45.204;38.576;2023-09-18T06:09:58;1.90;;;1.80;;
64873;SDS011;51367;45.204;38.576;2023-09-18T06:12:24;3.22;;;2.20;;
64873;SDS011;51367;45.204;38.576;2023-09-18T06:14:51;2.63;;;2.42;;
64873;SDS011;51367;45.204;38.576;2023-09-18T06:17:17;2.33;;;2.13;;
64873;SDS011;51367;45.204;38.576;2023-09-18T06:19:43;2.70;;;2.50;;
64873;SDS011;51367;45.204;38.576;2023-09-18T06:22:13;2.45;;;2.25;;
64873;SDS011;51367;45.204;38.576;2023-09-18T06:24:39;2.95;;;2.20;;
64873;SDS011;51367;45.204;38.576;2023-09-18T06:27:06;2.90;;;2.15;;
64873;SDS011;51367;45.204;38.576;2023-09-18T06:29:32;2.60;;;2.40;;
64873;SDS011;51367;45.204;38.576;2023-09-18T06:31:59;2.42;;;2.20;;
64873;SDS011;51367;45.204;38.576;2023-09-18T06:34:26;3.55;;;2.10;;
64873;SDS011;51367;45.204;38.576;2023-09-18T06:36:53;2.63;;;2.33;;
64873;SDS011;51367;45.204;38.576;2023-09-18T06:39:19;2.35;;;2.15;;
64873;SDS011;51367;45.204;38.576;2023-09-18T06:41:47;2.10;;;1.90;;
64873;SDS011;51367;45.204;38.576;2023-09-18T06:44:13;1.60;;;1.50;;
64873;SDS011;51367;45.204;38.576;2023-09-18T06:46:39;1.33;;;1.23;;
64873;SDS011;51367;45.204;38.576;2023-09-18T06:49:05;1.65;;;1.55;;
64873;SDS011;51367;45.204;38.576;2023-09-18T06:51:31;2.92;;;1.77;;
64873;SDS011;51367;45.204;38.576;2023-09-18T06:53:57;2.88;;;2.20;;
64873;SDS011;51367;45.204;38.576;2023-09-18T06:56:24;1.20;;;1.20;;
64873;SDS011;51367;45.204;38.576;2023-09-18T06:58:50;1.90;;;1.80;;
64873;SDS011;51367;45.204;38.576;2023-09-18T07:01:19;2.30;;;2.10;;
64873;SDS011;51367;45.204;38.576;2023-09-18T07:03:46;1.77;;;1.67;;
64873;SDS011;51367;45.204;38.576;2023-09-18T07:06:16;2.83;;;2.00;;
64873;SDS011;51367;45.204;38.576;2023-09-18T07:08:45;1.73;;;1.63;;
64873;SDS011;51367;45.204;38.576;2023-09-18T07:11:12;1.00;;;1.00;;
64873;SDS011;51367;45.204;38.576;2023-09-18T07:13:38;1.65;;;1.55;;
64873;SDS011;51367;45.204;38.576;2023-09-18T07:16:05;1.40;;;1.30;;
64873;SDS011;51367;45.204;38.576;2023-09-18T07:18:31;6.63;;;2.33;;
64873;SDS011;51367;45.204;38.576;2023-09-18T07:20:58;1.50;;;1.40;;
64873;SDS011;51367;45.204;38.576;2023-09-18T07:23:24;2.75;;;1.65;;
64873;SDS011;51367;45.204;38.576;2023-09-18T07:25:50;4.45;;;2.38;;
64873;SDS011;51367;45.204;38.576;2023-09-18T07:28:15;2.08;;;1.85;;
64873;SDS011;51367;45.204;38.576;2023-09-18T07:30:44;1.90;;;1.80;;
64873;SDS011;51367;45.204;38.576;2023-09-18T07:33:10;2.17;;;2.03;;
64873;SDS011;51367;45.204;38.576;2023-09-18T07:35:36;1.83;;;1.60;;
64873;SDS011;51367;45.204;38.576;2023-09-18T07:38:03;1.55;;;1.45;;
64873;SDS011;51367;45.204;38.576;2023-09-18T07:40:29;1.80;;;1.70;;
64873;SDS011;51367;45.204;38.576;2023-09-18T07:42:55;1.52;;;1.42;;
64873;SDS011;51367;45.204;38.576;2023-09-18T07:45:22;1.67;;;1.58;;
64873;SDS011;51367;45.204;38.576;2023-09-18T07:47:49;2.58;;;2.38;;
64873;SDS011;51367;45.204;38.576;2023-09-18T07:50:15;2.30;;;2.10;;
64873;SDS011;51367;45.204;38.576;2023-09-18T07:52:41;2.03;;;1.83;;
64873;SDS011;51367;45.204;38.576;2023-09-18T07:55:07;1.58;;;1.48;;
64873;SDS011;51367;45.204;38.576;2023-09-18T07:57:33;5.50;;;1.80;;
64873;SDS011;51367;45.204;38.576;2023-09-18T08:00:00;1.75;;;1.65;;
64873;SDS011;51367;45.204;38.576;2023-09-18T08:02:38;1.65;;;1.55;;
64873;SDS011;51367;45.204;38.576;2023-09-18T08:05:05;2.25;;;1.52;;
64873;SDS011;51367;45.204;38.576;2023-09-18T08:07:31;2.15;;;1.17;;
64873;SDS011;51367;45.204;38.576;2023-09-18T08:09:57;4.15;;;3.42;;
64873;SDS011;51367;45.204;38.576;2023-09-18T08:12:23;2.03;;;1.92;;
64873;SDS011;51367;45.204;38.576;2023-09-18T08:14:49;12.02;;;1.10;;
64873;SDS011;51367;45.204;38.576;2023-09-18T08:17:15;2.33;;;1.45;;
64873;SDS011;51367;45.204;38.576;2023-09-18T08:19:42;3.83;;;1.30;;
64873;SDS011;51367;45.204;38.576;2023-09-18T08:22:09;1.42;;;1.33;;
64873;SDS011;51367;45.204;38.576;2023-09-18T08:24:40;3.72;;;1.48;;
64873;SDS011;51367;45.204;38.576;2023-09-18T08:27:06;1.40;;;1.30;;
64873;SDS011;51367;45.204;38.576;2023-09-18T08:29:32;7.65;;;1.77;;
64873;SDS011;51367;45.204;38.576;2023-09-18T08:31:58;3.60;;;1.58;;
64873;SDS011;51367;45.204;38.576;2023-09-18T08:34:24;9.77;;;1.50;;
64873;SDS011;51367;45.204;38.576;2023-09-18T08:36:50;1.10;;;1.00;;
64873;SDS011;51367;45.204;38.576;2023-09-18T08:39:16;4.15;;;1.63;;
64873;SDS011;51367;45.204;38.576;2023-09-18T08:41:43;2.40;;;1.60;;
64873;SDS011;51367;45.204;38.576;2023-09-18T08:44:10;1.42;;;1.33;;
64873;SDS011;51367;45.204;38.576;2023-09-18T08:46:37;1.60;;;1.33;;
64873;SDS011;51367;45.204;38.576;2023-09-18T08:49:04;1.55;;;1.45;;
64873;SDS011;51367;45.204;38.576;2023-09-18T08:51:30;1.25;;;1.25;;
64873;SDS011;51367;45.204;38.576;2023-09-18T08:53:58;3.33;;;1.20;;
64873;SDS011;51367;45.204;38.576;2023-09-18T08:56:24;1.63;;;1.52;;
64873;SDS011;51367;45.204;38.576;2023-09-18T08:58:53;1.55;;;1.45;;
64873;SDS011;51367;45.204;38.576;2023-09-18T09:01:19;1.30;;;1.10;;
64873;SDS011;51367;45.204;38.576;2023-09-18T09:03:46;1.48;;;1.38;;
64873;SDS011;51367;45.204;38.576;2023-09-18T09:06:12;3.08;;;1.85;;
64873;SDS011;51367;45.204;38.576;2023-09-18T09:08:38;1.15;;;1.15;;
64873;SDS011;51367;45.204;38.576;2023-09-18T09:11:05;2.55;;;1.77;;
64873;SDS011;51367;45.204;38.576;2023-09-18T09:13:31;5.50;;;2.40;;
64873;SDS011;51367;45.204;38.576;2023-09-18T09:15:58;5.60;;;3.97;;
64873;SDS011;51367;45.204;38.576;2023-09-18T09:18:26;9.05;;;1.95;;
64873;SDS011;51367;45.204;38.576;2023-09-18T09:20:57;0.93;;;0.82;;
64873;SDS011;51367;45.204;38.576;2023-09-18T09:23:42;1.27;;;1.20;;
64873;SDS011;51367;45.204;38.576;2023-09-18T09:26:14;1.23;;;1.13;;
64873;SDS011;51367;45.204;38.576;2023-09-18T09:28:42;2.20;;;2.05;;
64873;SDS011;51367;45.204;38.576;2023-09-18T09:31:09;1.73;;;1.63;;
64873;SDS011;51367;45.204;38.576;2023-09-18T09:33:40;1.23;;;1.13;;
64873;SDS011;51367;45.204;38.576;2023-09-18T09:36:19;1.30;;;1.20;;
64873;SDS011;51367;45.204;38.576;2023-09-18T09:38:48;1.40;;;1.30;;
64873;SDS011;51367;45.204;38.576;2023-09-18T09:41:19;2.60;;;1.27;;
64873;SDS011;51367;45.204;38.576;2023-09-18T09:43:46;1.50;;;1.40;;
64873;SDS011;51367;45.204;38.576;2023-09-18T09:46:16;1.48;;;1.38;;
64873;SDS011;51367;45.204;38.576;2023-09-18T09:49:04;1.08;;;1.08;;
64873;SDS011;51367;45.204;38.576;2023-09-18T09:51:30;1.42;;;1.13;;
64873;SDS011;51367;45.204;38.576;2023-09-18T09:53:56;4.45;;;1.52;;
64873;SDS011;51367;45.204;38.576;2023-09-18T09:56:43;1.58;;;1.25;;
64873;SDS011;51367;45.204;38.576;2023-09-18T09:59:16;1.65;;;1.55;;
64873;SDS011;51367;45.204;38.576;2023-09-18T10:01:46;1.25;;;1.10;;
64873;SDS011;51367;45.204;38.576;2023-09-18T10:04:15;1.30;;;1.20;;
64873;SDS011;51367;45.204;38.576;2023-09-18T10:06:52;1.35;;;1.27;;
64873;SDS011;51367;45.204;38.576;2023-09-18T10:09:22;1.40;;;1.30;;
64873;SDS011;51367;45.204;38.576;2023-09-18T10:11:52;1.00;;;0.98;;
64873;SDS011;51367;45.204;38.576;2023-09-18T10:14:31;1.45;;;1.13;;
64873;SDS011;51367;45.204;38.576;2023-09-18T10:17:00;1.02;;;1.02;;
64873;SDS011;51367;45.204;38.576;2023-09-18T10:19:43;1.48;;;1.38;;
64873;SDS011;51367;45.204;38.576;2023-09-18T10:22:52;1.52;;;1.17;;
64873;SDS011;51367;45.204;38.576;2023-09-18T10:25:17;1.50;;;1.40;;
64873;SDS011;51367;45.204;38.576;2023-09-18T10:27:46;1.42;;;1.33;;
64873;SDS011;51367;45.204;38.576;2023-09-18T10:30:19;3.55;;;1.10;;
64873;SDS011;51367;45.204;38.576;2023-09-18T10:32:49;0.85;;;0.85;;
64873;SDS011;51367;45.204;38.576;2023-09-18T10:35:16;1.42;;;1.33;;
64873;SDS011;51367;45.204;38.576;2023-09-18T10:37:43;2.10;;;1.42;;
64873;SDS011;51367;45.204;38.576;2023-09-18T10:40:10;1.35;;;1.02;;
64873;SDS011;51367;45.204;38.576;2023-09-18T10:42:40;1.30;;;1.20;;
64873;SDS011;51367;45.204;38.576;2023-09-18T10:45:07;1.25;;;1.15;;
64873;SDS011;51367;45.204;38.576;2023-09-18T10:47:37;1.30;;;1.20;;
64873;SDS011;51367;45.204;38.576;2023-09-18T10:50:05;0.98;;;0.98;;
64873;SDS011;51367;45.204;38.576;2023-09-18T10:52:34;1.30;;;1.08;;
64873;SDS011;51367;45.204;38.576;2023-09-18T10:55:01;2.47;;;1.33;;
64873;SDS011;51367;45.204;38.576;2023-09-18T10:57:33;2.88;;;1.83;;
64873;SDS011;51367;45.204;38.576;2023-09-18T11:00:01;1.27;;;1.20;;
64873;SDS011;51367;45.204;38.576;2023-09-18T11:02:41;1.38;;;1.27;;
64873;SDS011;51367;45.204;38.576;2023-09-18T11:05:07;1.33;;;1.13;;
64873;SDS011;51367;45.204;38.576;2023-09-18T11:07:33;1.30;;;1.23;;
64873;SDS011;51367;45.204;38.576;2023-09-18T11:09:59;1.33;;;1.15;;
64873;SDS011;51367;45.204;38.576;2023-09-18T11:12:52;0.98;;;0.90;;
64873;SDS011;51367;45.204;38.576;2023-09-18T11:15:26;2.40;;;2.20;;
64873;SDS011;51367;45.204;38.576;2023-09-18T11:18:01;1.27;;;1.17;;
64873;SDS011;51367;45.204;38.576;2023-09-18T11:22:57;1.20;;;1.20;;
64873;SDS011;51367;45.204;38.576;2023-09-18T11:25:34;1.52;;;1.17;;
64873;SDS011;51367;45.204;38.576;2023-09-18T11:28:03;3.00;;;1.35;;
64873;SDS011;51367;45.204;38.576;2023-09-18T11:30:36;1.00;;;0.90;;
64873;SDS011;51367;45.204;38.576;2023-09-18T11:33:04;1.38;;;1.27;;
64873;SDS011;51367;45.204;38.576;2023-09-18T11:35:31;1.23;;;1.13;;
64873;SDS011;51367;45.204;38.576;2023-09-18T11:38:08;3.72;;;1.17;;
64873;SDS011;51367;45.204;38.576;2023-09-18T11:40:36;0.95;;;0.95;;
64873;SDS011;51367;45.204;38.576;2023-09-18T11:43:23;2.25;;;1.05;;
64873;SDS011;51367;45.204;38.576;2023-09-18T11:45:51;1.30;;;1.13;;
64873;SDS011;51367;45.204;38.576;2023-09-18T11:48:19;1.33;;;1.00;;
64873;SDS011;51367;45.204;38.576;2023-09-18T11:50:46;0.90;;;0.90;;
64873;SDS011;51367;45.204;38.576;2023-09-18T11:53:16;1.60;;;1.30;;
64873;SDS011;51367;45.204;38.576;2023-09-18T11:55:46;3.33;;;1.60;;
64873;SDS011;51367;45.204;38.576;2023-09-18T11:58:12;1.13;;;1.02;;
64873;SDS011;51367;45.204;38.576;2023-09-18T12:00:39;0.82;;;0.82;;
64873;SDS011;51367;45.204;38.576;2023-09-18T12:03:17;1.03;;;1.00;;
64873;SDS011;51367;45.204;38.576;2023-09-18T12:05:56;0.77;;;0.77;;
64873;SDS011;51367;45.204;38.576;2023-09-18T12:08:25;1.00;;;1.00;;
64873;SDS011;51367;45.204;38.576;2023-09-18T12:10:55;1.48;;;1.30;;
64873;SDS011;51367;45.204;38.576;2023-09-18T12:13:22;1.40;;;0.90;;
64873;SDS011;51367;45.204;38.576;2023-09-18T12:15:55;3.17;;;1.08;;
64873;SDS011;51367;45.204;38.576;2023-09-18T12:18:22;0.80;;;0.80;;
64873;SDS011;51367;45.204;38.576;2023-09-18T12:20:50;1.08;;;1.08;;
64873;SDS011;51367;45.204;38.576;2023-09-18T12:23:16;1.00;;;1.00;;
64873;SDS011;51367;45.204;38.576;2023-09-18T12:25:46;1.15;;;1.15;;
64873;SDS011;51367;45.204;38.576;2023-09-18T12:28:14;1.05;;;1.05;;
64873;SDS011;51367;45.204;38.576;2023-09-18T12:30:41;0.63;;;0.63;;
64873;SDS011;51367;45.204;38.576;2023-09-18T12:33:08;0.98;;;0.90;;
64873;SDS011;51367;45.204;38.576;2023-09-18T12:35:34;1.05;;;1.00;;
64873;SDS011;51367;45.204;38.576;2023-09-18T12:38:00;1.52;;;1.05;;
64873;SDS011;51367;45.204;38.576;2023-09-18T12:40:26;0.80;;;0.80;;
64873;SDS011;51367;45.204;38.576;2023-09-18T12:42:54;3.00;;;0.90;;
64873;SDS011;51367;45.204;38.576;2023-09-18T12:45:22;0.60;;;0.60;;
64873;SDS011;51367;45.204;38.576;2023-09-18T12:47:54;0.73;;;0.73;;
64873;SDS011;51367;45.204;38.576;2023-09-18T12:50:22;1.58;;;0.90;;
64873;SDS011;51367;45.204;38.576;2023-09-18T12:52:48;1.55;;;1.20;;
64873;SDS011;51367;45.204;38.576;2023-09-18T12:55:24;0.60;;;0.60;;
64873;SDS011;51367;45.204;38.576;2023-09-18T12:57:52;2.85;;;0.60;;
64873;SDS011;51367;45.204;38.576;2023-09-18T13:00:19;1.08;;;0.95;;
64873;SDS011;51367;45.204;38.576;2023-09-18T13:05:23;6.75;;;1.15;;
64873;SDS011;51367;45.204;38.576;2023-09-18T13:08:01;1.70;;;1.15;;
64873;SDS011;51367;45.204;38.576;2023-09-18T13:10:29;0.70;;;0.70;;
64873;SDS011;51367;45.204;38.576;2023-09-18T13:13:05;1.23;;;0.80;;
64873;SDS011;51367;45.204;38.576;2023-09-18T13:15:32;1.25;;;1.15;;
64873;SDS011;51367;45.204;38.576;2023-09-18T13:17:59;0.80;;;0.80;;
64873;SDS011;51367;45.204;38.576;2023-09-18T13:20:34;0.93;;;0.90;;
64873;SDS011;51367;45.204;38.576;2023-09-18T13:23:00;1.70;;;1.00;;
64873;SDS011;51367;45.204;38.576;2023-09-18T13:25:29;1.17;;;0.90;;
64873;SDS011;51367;45.204;38.576;2023-09-18T13:28:00;1.23;;;0.90;;
64873;SDS011;51367;45.204;38.576;2023-09-18T13:30:27;1.08;;;1.05;;
64873;SDS011;51367;45.204;38.576;2023-09-18T13:33:01;1.20;;;1.10;;
64873;SDS011;51367;45.204;38.576;2023-09-18T13:35:29;1.75;;;1.00;;
64873;SDS011;51367;45.204;38.576;2023-09-18T13:37:55;1.00;;;0.95;;
64873;SDS011;51367;45.204;38.576;2023-09-18T13:40:21;4.00;;;0.57;;
64873;SDS011;51367;45.204;38.576;2023-09-18T13:42:47;0.93;;;0.93;;
64873;SDS011;51367;45.204;38.576;2023-09-18T13:45:14;0.85;;;0.85;;
64873;SDS011;51367;45.204;38.576;2023-09-18T13:47:43;1.08;;;0.98;;
64873;SDS011;51367;45.204;38.576;2023-09-18T13:50:09;5.13;;;1.40;;
64873;SDS011;51367;45.204;38.576;2023-09-18T13:52:35;1.30;;;1.02;;
64873;SDS011;51367;45.204;38.576;2023-09-18T13:55:02;1.30;;;1.20;;
64873;SDS011;51367;45.204;38.576;2023-09-18T13:57:33;1.13;;;1.00;;
64873;SDS011;51367;45.204;38.576;2023-09-18T14:00:00;0.80;;;0.80;;
64873;SDS011;51367;45.204;38.576;2023-09-18T14:02:41;1.20;;;1.10;;
64873;SDS011;51367;45.204;38.576;2023-09-18T14:05:07;1.35;;;0.95;;
64873;SDS011;51367;45.204;38.576;2023-09-18T14:07:35;2.17;;;1.45;;
64873;SDS011;51367;45.204;38.576;2023-09-18T14:10:04;2.75;;;1.08;;
64873;SDS011;51367;45.204;38.576;2023-09-18T14:12:38;0.80;;;0.80;;
64873;SDS011;51367;45.204;38.576;2023-09-18T14:15:08;0.82;;;0.82;;
64873;SDS011;51367;45.204;38.576;2023-09-18T14:17:35;0.93;;;0.93;;
64873;SDS011;51367;45.204;38.576;2023-09-18T14:20:02;0.95;;;0.90;;
64873;SDS011;51367;45.204;38.576;2023-09-18T14:22:33;3.35;;;2.55;;
64873;SDS011;51367;45.204;38.576;2023-09-18T14:25:01;3.33;;;1.80;;
64873;SDS011;51367;45.204;38.576;2023-09-18T14:27:31;6.57;;;1.67;;
64873;SDS011;51367;45.204;38.576;2023-09-18T14:29:58;0.75;;;0.75;;
64873;SDS011;51367;45.204;38.576;2023-09-18T14:32:24;1.30;;;1.08;;
64873;SDS011;51367;45.204;38.576;2023-09-18T14:34:50;0.85;;;0.85;;
64873;SDS011;51367;45.204;38.576;2023-09-18T14:37:15;0.70;;;0.70;;
64873;SDS011;51367;45.204;38.576;2023-09-18T14:39:41;1.40;;;1.30;;
64873;SDS011;51367;45.204;38.576;2023-09-18T14:42:08;1.40;;;0.93;;
64873;SDS011;51367;45.204;38.576;2023-09-18T14:44:35;1.05;;;0.95;;
64873;SDS011;51367;45.204;38.576;2023-09-18T14:47:05;2.15;;;0.90;;
64873;SDS011;51367;45.204;38.576;2023-09-18T14:49:31;1.20;;;1.00;;